Time;durP1;ratioP1;P1;durP2;ratioP2;P2;SDS_P1;SDS_P2;PMS_P1;PMS_P2;Temp;Humidity;BMP_temperature;BMP_pressure;BME280_temperature;BME280_humidity;BME280_pressure;Samples;Min_cycle;Max_cycle;Signal;HPM_P1;HPM_P2
2022/05/14 00:01:16;;;;;;;;;;;13.20;99.90;;;;;;5072714;28;20051;-60
2022/05/14 00:03:42;;;;;;;;;;;13.20;99.90;;;;;;5072394;28;20355;-60
2022/05/14 00:06:09;;;;;;;;;;;13.20;99.90;;;;;;5054167;28;20342;-60
2022/05/14 00:08:35;;;;;;;;;;;13.10;99.90;;;;;;5072165;28;19921;-61
2022/05/14 00:13:45;;;;;;;;;;;13.10;99.90;;;;;;5072215;28;20030;-60
2022/05/14 00:16:11;;;;;;;;;;;13.00;99.90;;;;;;5072052;28;20004;-60
2022/05/14 00:18:37;;;;;;;;;;;13.00;99.90;;;;;;5072275;28;19920;-59
2022/05/14 00:21:02;;;;;;;;;;;13.00;99.90;;;;;;5072019;28;19954;-60
2022/05/14 00:23:28;;;;;;;;;;;13.00;99.90;;;;;;5072131;28;19920;-60
2022/05/14 00:25:53;;;;;;;;;;;12.90;99.90;;;;;;5071929;28;20313;-60
2022/05/14 00:28:19;;;;;;;;;;;13.00;99.90;;;;;;5071943;28;19965;-60
2022/05/14 00:30:45;;;;;;;;;;;13.00;99.90;;;;;;5072154;28;19921;-60
2022/05/14 00:33:11;;;;;;;;;;;12.90;99.90;;;;;;5072109;28;19927;-60
2022/05/14 00:35:36;;;;;;;;;;;12.90;99.90;;;;;;5054024;28;19966;-60
2022/05/14 00:38:02;;;;;;;;;;;12.90;99.90;;;;;;5054282;28;19928;-60
2022/05/14 00:40:30;;;;;;;;;;;12.90;99.90;;;;;;5071937;28;20257;-60
2022/05/14 00:42:56;;;;;;;;;;;12.90;99.90;;;;;;5075170;28;19963;-60
2022/05/14 00:45:22;;;;;;;;;;;12.80;99.90;;;;;;5076203;28;20306;-59
2022/05/14 00:47:49;;;;;;;;;;;12.80;99.90;;;;;;5075892;28;19920;-60
2022/05/14 00:50:15;;;;;;;;;;;12.80;99.90;;;;;;5075946;28;19927;-60
2022/05/14 00:52:41;;;;;;;;;;;12.80;99.90;;;;;;5075654;28;20007;-60
2022/05/14 00:55:07;;;;;;;;;;;12.80;99.90;;;;;;5076188;28;19921;-60
2022/05/14 00:57:38;;;;;;;;;;;12.80;99.90;;;;;;5075434;28;19931;-60
2022/05/14 01:00:09;;;;;;;;;;;12.80;99.90;;;;;;5075836;28;19926;-60
2022/05/14 01:02:35;;;;;;;;;;;12.90;99.90;;;;;;5075434;28;19924;-59
2022/05/14 01:05:00;;;;;;;;;;;12.80;99.90;;;;;;5075761;28;19921;-60
2022/05/14 01:07:27;;;;;;;;;;;12.80;99.90;;;;;;5075713;28;19932;-60
2022/05/14 01:09:57;;;;;;;;;;;12.90;99.90;;;;;;5075603;28;20113;-60
2022/05/14 01:12:23;;;;;;;;;;;12.90;99.90;;;;;;5075654;28;19924;-60
2022/05/14 01:14:49;;;;;;;;;;;12.90;99.90;;;;;;5075494;28;20286;-60
2022/05/14 01:17:15;;;;;;;;;;;12.80;99.90;;;;;;5075302;28;19924;-60
2022/05/14 01:19:41;;;;;;;;;;;12.80;99.90;;;;;;5075513;28;19959;-60
2022/05/14 01:22:25;;;;;;;;;;;12.90;99.90;;;;;;5075763;28;19973;-60
2022/05/14 01:27:46;;;;;;;;;;;12.80;99.90;;;;;;5075446;28;19928;-60
2022/05/14 01:30:12;;;;;;;;;;;12.80;99.90;;;;;;5075257;28;19999;-60
2022/05/14 01:32:37;;;;;;;;;;;12.80;99.90;;;;;;5057703;28;20454;-60
2022/05/14 01:35:04;;;;;;;;;;;12.80;99.90;;;;;;5057132;28;19927;-60
2022/05/14 01:37:29;;;;;;;;;;;12.80;99.90;;;;;;5074945;28;19975;-60
2022/05/14 01:39:55;;;;;;;;;;;12.80;99.90;;;;;;5074901;28;19975;-60
2022/05/14 01:42:20;;;;;;;;;;;12.80;99.90;;;;;;5089812;28;20290;-60
2022/05/14 01:44:46;;;;;;;;;;;12.80;99.90;;;;;;5094365;28;19924;-60
2022/05/14 01:47:11;;;;;;;;;;;12.70;99.90;;;;;;5094233;28;19920;-60
2022/05/14 01:49:37;;;;;;;;;;;12.70;99.90;;;;;;5094874;28;20007;-60
2022/05/14 01:52:03;;;;;;;;;;;12.70;99.90;;;;;;5094882;28;20011;-60
2022/05/14 01:54:29;;;;;;;;;;;12.60;99.90;;;;;;5094601;28;19920;-60
2022/05/14 01:56:54;;;;;;;;;;;12.60;99.90;;;;;;5094793;28;19983;-60
2022/05/14 01:59:20;;;;;;;;;;;12.60;99.90;;;;;;5094654;28;19924;-60
2022/05/14 02:01:45;;;;;;;;;;;12.60;99.90;;;;;;5094527;28;20263;-61
2022/05/14 02:04:12;;;;;;;;;;;12.60;99.90;;;;;;5094592;28;19967;-60
2022/05/14 02:06:38;;;;;;;;;;;12.60;99.90;;;;;;5094757;28;19920;-60
2022/05/14 02:09:05;;;;;;;;;;;12.50;99.90;;;;;;5094600;28;19924;-60
2022/05/14 02:11:31;;;;;;;;;;;12.50;99.90;;;;;;5094604;28;19962;-60
2022/05/14 02:13:56;;;;;;;;;;;12.50;99.90;;;;;;5094648;28;19951;-60
2022/05/14 02:16:22;;;;;;;;;;;12.40;99.90;;;;;;5094767;28;20320;-60
2022/05/14 02:18:47;;;;;;;;;;;12.40;99.90;;;;;;5094295;28;19931;-60
2022/05/14 02:21:13;;;;;;;;;;;12.30;99.90;;;;;;5094540;28;19924;-60
2022/05/14 02:23:39;;;;;;;;;;;12.30;99.90;;;;;;5094413;28;20278;-60
2022/05/14 02:26:06;;;;;;;;;;;12.30;99.90;;;;;;5094440;28;19972;-60
2022/05/14 02:28:32;;;;;;;;;;;12.30;99.90;;;;;;5094254;28;19921;-60
2022/05/14 02:30:58;;;;;;;;;;;12.30;99.90;;;;;;5094179;28;20293;-60
2022/05/14 02:33:23;;;;;;;;;;;12.20;99.90;;;;;;5094429;28;19920;-60
2022/05/14 02:35:49;;;;;;;;;;;12.20;99.90;;;;;;5094147;28;19970;-60
2022/05/14 02:38:15;;;;;;;;;;;12.20;99.90;;;;;;5093887;28;20356;-60
2022/05/14 02:40:41;;;;;;;;;;;12.20;99.90;;;;;;5093951;28;19931;-60
2022/05/14 02:43:06;;;;;;;;;;;12.10;99.90;;;;;;5094146;28;19920;-60
2022/05/14 02:45:32;;;;;;;;;;;12.10;99.90;;;;;;5094243;28;20007;-60
2022/05/14 02:47:58;;;;;;;;;;;12.00;99.90;;;;;;5075774;28;20289;-60
2022/05/14 02:50:24;;;;;;;;;;;12.00;99.90;;;;;;5093894;28;20453;-60
2022/05/14 02:52:50;;;;;;;;;;;12.00;99.90;;;;;;5094130;28;20328;-60
2022/05/14 02:55:15;;;;;;;;;;;12.00;99.90;;;;;;5093682;28;20301;-60
2022/05/14 02:57:41;;;;;;;;;;;11.90;99.90;;;;;;5094188;28;19932;-60
2022/05/14 03:00:09;;;;;;;;;;;11.90;99.90;;;;;;5075617;28;19995;-60
2022/05/14 03:02:35;;;;;;;;;;;11.90;99.90;;;;;;5094052;28;19928;-60
2022/05/14 03:05:01;;;;;;;;;;;11.90;99.90;;;;;;5092955;28;20035;-60
2022/05/14 03:07:27;;;;;;;;;;;11.80;99.90;;;;;;5093636;28;19924;-60
2022/05/14 03:09:52;;;;;;;;;;;11.80;99.90;;;;;;5093333;28;19982;-60
2022/05/14 03:12:21;;;;;;;;;;;11.70;99.90;;;;;;5093432;28;19927;-60
2022/05/14 03:14:50;;;;;;;;;;;11.60;99.90;;;;;;5093328;28;19920;-60
2022/05/14 03:17:16;;;;;;;;;;;11.50;99.90;;;;;;5075398;28;19927;-61
2022/05/14 03:19:42;;;;;;;;;;;11.50;99.90;;;;;;5093478;28;20370;-60
2022/05/14 03:22:08;;;;;;;;;;;11.50;99.90;;;;;;5093204;28;19998;-60
2022/05/14 03:24:36;;;;;;;;;;;11.50;99.90;;;;;;5093265;28;19924;-60
2022/05/14 03:27:01;;;;;;;;;;;11.50;99.90;;;;;;5093111;28;19924;-60
2022/05/14 03:29:27;;;;;;;;;;;11.50;99.90;;;;;;5093128;28;20014;-60
2022/05/14 03:31:55;;;;;;;;;;;11.40;99.90;;;;;;5093375;28;19920;-60
2022/05/14 03:34:20;;;;;;;;;;;11.40;99.90;;;;;;5093082;28;19920;-60
2022/05/14 03:36:46;;;;;;;;;;;11.40;99.90;;;;;;5075089;28;20310;-60
2022/05/14 03:39:11;;;;;;;;;;;11.50;99.90;;;;;;5092809;28;20007;-60
2022/05/14 03:41:37;;;;;;;;;;;11.40;99.90;;;;;;5092707;28;19920;-61
2022/05/14 03:44:03;;;;;;;;;;;11.40;99.90;;;;;;5093005;28;19920;-60
2022/05/14 03:46:28;;;;;;;;;;;11.40;99.90;;;;;;5093283;28;19927;-61
2022/05/14 03:48:54;;;;;;;;;;;11.50;99.90;;;;;;5092882;28;19924;-60
2022/05/14 03:51:20;;;;;;;;;;;11.50;99.90;;;;;;5092722;28;20371;-60
2022/05/14 03:53:47;;;;;;;;;;;11.40;99.90;;;;;;5092742;28;19920;-61
2022/05/14 03:56:13;;;;;;;;;;;11.40;99.90;;;;;;5092596;28;19989;-60
2022/05/14 03:58:38;;;;;;;;;;;11.50;99.90;;;;;;5074192;28;20370;-60
2022/05/14 04:01:05;;;;;;;;;;;11.30;99.90;;;;;;5092798;28;19931;-60
2022/05/14 04:03:33;;;;;;;;;;;11.30;99.90;;;;;;5092605;28;20309;-60
2022/05/14 04:05:59;;;;;;;;;;;11.40;99.90;;;;;;5092723;28;20301;-60
2022/05/14 04:08:25;;;;;;;;;;;11.40;99.90;;;;;;5092426;28;19986;-61
2022/05/14 04:10:51;;;;;;;;;;;11.40;99.90;;;;;;5092641;28;19932;-61
2022/05/14 04:13:16;;;;;;;;;;;11.40;99.90;;;;;;5092472;28;19924;-60
2022/05/14 04:15:42;;;;;;;;;;;11.40;99.90;;;;;;5092665;28;19924;-60
2022/05/14 04:18:09;;;;;;;;;;;11.40;99.90;;;;;;5092320;28;19924;-60
2022/05/14 04:20:35;;;;;;;;;;;11.40;99.90;;;;;;5092607;28;20297;-60
2022/05/14 04:23:01;;;;;;;;;;;11.40;99.90;;;;;;5092424;28;20378;-61
2022/05/14 04:25:27;;;;;;;;;;;11.40;99.90;;;;;;5092455;28;19920;-60
2022/05/14 04:27:53;;;;;;;;;;;11.40;99.90;;;;;;5074188;28;19921;-60
2022/05/14 04:30:18;;;;;;;;;;;11.50;99.90;;;;;;5074284;28;19928;-60
2022/05/14 04:32:44;;;;;;;;;;;11.50;99.90;;;;;;5092410;28;19924;-61
2022/05/14 04:35:10;;;;;;;;;;;11.50;99.90;;;;;;5092425;28;19920;-61
2022/05/14 04:37:36;;;;;;;;;;;11.50;99.90;;;;;;5092109;28;20390;-60
2022/05/14 04:40:02;;;;;;;;;;;11.50;99.90;;;;;;5092013;28;19924;-60
2022/05/14 04:42:28;;;;;;;;;;;11.60;99.90;;;;;;5092225;28;19966;-60
2022/05/14 04:44:53;;;;;;;;;;;11.60;99.90;;;;;;5092502;28;19924;-60
2022/05/14 04:47:19;;;;;;;;;;;11.50;99.90;;;;;;5092249;28;19920;-60
2022/05/14 04:49:45;;;;;;;;;;;11.60;99.90;;;;;;5092296;28;20382;-60
2022/05/14 04:52:11;;;;;;;;;;;11.70;99.90;;;;;;5092094;28;19920;-60
2022/05/14 04:54:37;;;;;;;;;;;11.70;99.90;;;;;;5091929;28;19943;-60
2022/05/14 04:57:03;;;;;;;;;;;11.70;99.90;;;;;;5091936;28;20409;-60
2022/05/14 04:59:28;;;;;;;;;;;11.80;99.90;;;;;;5092428;28;19928;-60
2022/05/14 05:04:39;;;;;;;;;;;11.80;99.90;;;;;;5092034;28;20278;-60
2022/05/14 05:07:04;;;;;;;;;;;12.00;99.90;;;;;;5091983;28;19942;-60
2022/05/14 05:09:30;;;;;;;;;;;12.00;99.90;;;;;;5091838;28;19927;-60
2022/05/14 05:11:55;;;;;;;;;;;12.00;99.90;;;;;;5091831;28;19950;-60
2022/05/14 05:14:21;;;;;;;;;;;12.10;99.90;;;;;;5091965;28;19922;-61
2022/05/14 05:16:46;;;;;;;;;;;12.20;99.90;;;;;;5091785;28;19920;-60
2022/05/14 05:19:12;;;;;;;;;;;12.30;99.90;;;;;;5091799;28;19924;-60
2022/05/14 05:21:38;;;;;;;;;;;12.30;99.90;;;;;;5091833;28;20007;-60
2022/05/14 05:24:05;;;;;;;;;;;12.30;99.90;;;;;;5091832;28;20011;-60
2022/05/14 05:26:32;;;;;;;;;;;12.50;99.90;;;;;;5074779;28;19986;-65
2022/05/14 05:28:57;;;;;;;;;;;12.60;99.90;;;;;;5095191;28;19920;-65
2022/05/14 05:31:23;;;;;;;;;;;12.50;99.90;;;;;;5096669;28;19920;-64
2022/05/14 05:33:48;;;;;;;;;;;12.50;99.90;;;;;;5096764;28;19927;-64
2022/05/14 05:36:14;;;;;;;;;;;12.50;99.90;;;;;;5096851;28;19953;-65
2022/05/14 05:38:39;;;;;;;;;;;12.60;99.90;;;;;;5096675;28;20266;-65
2022/05/14 05:41:05;;;;;;;;;;;12.70;99.90;;;;;;5096222;28;19924;-65
2022/05/14 05:43:30;;;;;;;;;;;12.80;99.90;;;;;;5096479;28;19920;-65
2022/05/14 05:45:56;;;;;;;;;;;12.80;99.90;;;;;;5096348;28;19969;-65
2022/05/14 05:48:22;;;;;;;;;;;12.90;99.90;;;;;;5095923;28;19920;-65
2022/05/14 05:50:48;;;;;;;;;;;13.10;99.90;;;;;;5077666;28;19922;-65
2022/05/14 05:53:14;;;;;;;;;;;13.10;99.90;;;;;;5096121;28;20327;-65
2022/05/14 05:58:24;;;;;;;;;;;13.20;99.90;;;;;;5095557;28;20022;-65
2022/05/14 06:00:50;;;;;;;;;;;13.40;99.90;;;;;;5095855;28;19983;-66
2022/05/14 06:03:15;;;;;;;;;;;13.50;99.90;;;;;;5077068;28;19921;-66
2022/05/14 06:05:41;;;;;;;;;;;13.70;99.90;;;;;;5095508;28;19920;-66
2022/05/14 06:08:14;;;;;;;;;;;13.80;99.90;;;;;;5095288;28;19924;-65
2022/05/14 06:10:39;;;;;;;;;;;14.00;99.90;;;;;;5095243;28;19920;-65
2022/05/14 06:13:08;;;;;;;;;;;14.00;99.90;;;;;;5095089;28;19969;-65
2022/05/14 06:15:34;;;;;;;;;;;13.90;99.90;;;;;;5095338;28;19924;-65
2022/05/14 06:18:00;;;;;;;;;;;14.00;99.90;;;;;;5094955;28;19924;-65
2022/05/14 06:20:25;;;;;;;;;;;14.10;99.90;;;;;;5094371;28;19920;-65
2022/05/14 06:22:51;;;;;;;;;;;14.30;99.90;;;;;;5095139;28;19921;-65
2022/05/14 06:25:17;;;;;;;;;;;14.30;99.90;;;;;;5094874;28;19920;-65
2022/05/14 06:27:42;;;;;;;;;;;14.50;99.90;;;;;;5094655;28;20378;-65
2022/05/14 06:30:08;;;;;;;;;;;14.50;99.90;;;;;;5076719;28;20016;-65
2022/05/14 06:32:34;;;;;;;;;;;14.70;99.90;;;;;;5094277;28;20270;-65
2022/05/14 06:35:00;;;;;;;;;;;14.90;99.90;;;;;;5094622;28;19963;-65
2022/05/14 06:37:25;;;;;;;;;;;14.90;99.90;;;;;;5094165;28;19971;-65
2022/05/14 06:39:51;;;;;;;;;;;15.10;99.90;;;;;;5093159;28;19924;-65
2022/05/14 06:42:18;;;;;;;;;;;15.10;99.90;;;;;;5094153;28;19963;-65
2022/05/14 06:44:43;;;;;;;;;;;15.20;99.90;;;;;;5094419;28;19985;-65
2022/05/14 06:47:09;;;;;;;;;;;15.30;99.90;;;;;;5094246;28;20358;-65
2022/05/14 06:49:34;;;;;;;;;;;15.30;99.90;;;;;;5094163;28;19920;-66
2022/05/14 06:52:01;;;;;;;;;;;15.40;99.90;;;;;;5094123;28;19920;-65
2022/05/14 06:54:28;;;;;;;;;;;15.70;99.90;;;;;;5075992;28;20379;-65
2022/05/14 06:56:53;;;;;;;;;;;15.70;99.90;;;;;;5094158;28;20007;-65
2022/05/14 06:59:19;;;;;;;;;;;15.90;99.90;;;;;;5093837;28;20430;-65
2022/05/14 07:01:46;;;;;;;;;;;15.90;99.90;;;;;;5075822;28;19920;-65
2022/05/14 07:07:00;;;;;;;;;;;16.00;99.90;;;;;;5093727;28;20378;-64
2022/05/14 07:09:27;;;;;;;;;;;16.00;99.90;;;;;;5093543;28;20437;-65
2022/05/14 07:11:55;;;;;;;;;;;16.20;99.90;;;;;;5093850;28;19921;-65
2022/05/14 07:14:20;;;;;;;;;;;16.40;99.90;;;;;;5093692;28;20010;-65
2022/05/14 07:16:47;;;;;;;;;;;16.50;99.90;;;;;;5093616;28;20020;-65
2022/05/14 07:19:13;;;;;;;;;;;16.50;99.90;;;;;;5093607;28;20007;-65
2022/05/14 07:21:40;;;;;;;;;;;16.60;99.90;;;;;;5093326;28;19920;-65
2022/05/14 07:24:07;;;;;;;;;;;16.60;99.90;;;;;;5092978;28;20428;-65
2022/05/14 07:26:37;;;;;;;;;;;16.60;99.90;;;;;;5074739;28;19919;-65
2022/05/14 07:29:07;;;;;;;;;;;16.70;99.90;;;;;;5093366;28;19920;-64
2022/05/14 07:31:32;;;;;;;;;;;16.80;99.90;;;;;;5093074;28;19920;-65
2022/05/14 07:33:58;;;;;;;;;;;16.90;99.90;;;;;;5092993;28;19935;-65
2022/05/14 07:36:25;;;;;;;;;;;17.00;99.90;;;;;;5093067;28;20340;-65
2022/05/14 07:38:52;;;;;;;;;;;17.00;99.90;;;;;;5092571;28;19947;-66
2022/05/14 07:41:17;;;;;;;;;;;17.30;99.90;;;;;;5092781;28;20010;-65
2022/05/14 07:43:44;;;;;;;;;;;17.70;99.90;;;;;;5092637;28;20369;-65
2022/05/14 07:46:15;;;;;;;;;;;18.00;99.90;;;;;;5092961;28;20018;-65
2022/05/14 07:48:40;;;;;;;;;;;18.20;99.90;;;;;;5092830;28;19921;-65
2022/05/14 07:51:07;;;;;;;;;;;18.00;99.90;;;;;;5092445;28;19926;-65
2022/05/14 07:53:33;;;;;;;;;;;18.20;99.90;;;;;;5092678;28;20384;-66
2022/05/14 07:56:00;;;;;;;;;;;18.50;99.90;;;;;;5092446;28;19924;-61
2022/05/14 07:58:26;;;;;;;;;;;18.70;99.90;;;;;;5092584;28;19927;-61
2022/05/14 08:00:51;;;;;;;;;;;18.80;99.90;;;;;;5074718;28;19924;-61
2022/05/14 08:03:17;;;;;;;;;;;18.90;99.90;;;;;;5092530;28;19919;-61
2022/05/14 08:05:43;;;;;;;;;;;19.30;99.90;;;;;;5092423;28;19931;-65
2022/05/14 08:08:08;;;;;;;;;;;19.40;99.90;;;;;;5092658;28;20351;-65
2022/05/14 08:10:34;;;;;;;;;;;19.20;99.90;;;;;;5092298;28;19935;-63
2022/05/14 08:13:00;;;;;;;;;;;19.10;99.90;;;;;;5092552;28;20003;-64
2022/05/14 08:15:26;;;;;;;;;;;19.30;99.90;;;;;;5092452;28;19976;-65
2022/05/14 08:17:51;;;;;;;;;;;19.00;99.90;;;;;;5092003;28;19928;-64
2022/05/14 08:20:17;;;;;;;;;;;19.20;99.90;;;;;;5092387;28;19924;-65
2022/05/14 08:25:28;;;;;;;;;;;19.40;99.90;;;;;;5092420;28;20006;-65
2022/05/14 08:27:54;;;;;;;;;;;19.40;99.90;;;;;;5092324;28;19920;-66
2022/05/14 08:30:30;;;;;;;;;;;19.40;99.90;;;;;;5092005;28;19965;-66
2022/05/14 08:32:56;;;;;;;;;;;19.60;99.90;;;;;;5073667;28;20267;-66
2022/05/14 08:35:22;;;;;;;;;;;20.00;99.90;;;;;;5092090;28;19920;-66
2022/05/14 08:37:48;;;;;;;;;;;20.00;99.90;;;;;;5091890;28;19979;-66
2022/05/14 08:40:17;;;;;;;;;;;20.10;99.90;;;;;;5091989;28;19931;-66
2022/05/14 08:42:44;;;;;;;;;;;20.10;99.90;;;;;;5092202;28;19999;-65
2022/05/14 08:45:12;;;;;;;;;;;20.20;99.90;;;;;;5092014;28;19978;-66
2022/05/14 08:47:40;;;;;;;;;;;20.30;99.90;;;;;;5092068;28;19920;-65
2022/05/14 08:50:07;;;;;;;;;;;20.20;99.90;;;;;;5091852;28;20336;-66
2022/05/14 08:52:33;;;;;;;;;;;19.90;99.90;;;;;;5092144;28;19920;-65
2022/05/14 08:55:00;;;;;;;;;;;19.80;99.90;;;;;;5091995;28;19964;-65
2022/05/14 08:57:32;;;;;;;;;;;19.60;99.90;;;;;;5073822;28;19920;-66
2022/05/14 08:59:59;;;;;;;;;;;20.00;99.90;;;;;;5073716;28;19963;-65
2022/05/14 09:02:33;;;;;;;;;;;20.10;99.90;;;;;;5091777;28;20431;-65
2022/05/14 09:05:02;;;;;;;;;;;19.90;99.90;;;;;;5095917;28;19920;-65
2022/05/14 09:07:27;;;;;;;;;;;19.70;99.90;;;;;;5095928;28;19920;-66
2022/05/14 09:09:54;;;;;;;;;;;19.70;99.90;;;;;;5095721;28;20298;-66
2022/05/14 09:12:22;;;;;;;;;;;19.50;99.90;;;;;;5095720;28;19920;-66
2022/05/14 09:14:52;;;;;;;;;;;19.60;99.90;;;;;;5095557;28;19973;-65
2022/05/14 09:17:22;;;;;;;;;;;19.80;99.90;;;;;;5095404;28;19920;-66
2022/05/14 09:19:49;;;;;;;;;;;20.10;99.90;;;;;;5095758;28;19956;-65
2022/05/14 09:22:29;;;;;;;;;;;20.50;99.90;;;;;;5095427;28;19969;-64
2022/05/14 09:24:55;;;;;;;;;;;20.40;99.90;;;;;;5095389;28;19924;-66
2022/05/14 09:27:36;;;;;;;;;;;20.50;99.90;;;;;;5077433;28;19927;-66
2022/05/14 09:30:03;;;;;;;;;;;20.40;99.90;;;;;;5095790;28;19924;-64
2022/05/14 09:32:31;;;;;;;;;;;20.20;99.90;;;;;;5077267;28;19967;-64
2022/05/14 09:35:05;;;;;;;;;;;20.20;99.90;;;;;;5095413;28;19924;-64
2022/05/14 09:37:31;;;;;;;;;;;20.40;99.90;;;;;;5094977;28;20294;-64
2022/05/14 09:39:59;;;;;;;;;;;20.70;99.90;;;;;;5094313;28;20310;-64
2022/05/14 09:42:39;;;;;;;;;;;20.40;99.90;;;;;;5076988;28;19927;-64
2022/05/14 09:45:15;;;;;;;;;;;20.50;99.90;;;;;;5095416;28;19928;-65
2022/05/14 09:47:40;;;;;;;;;;;20.70;99.90;;;;;;5094907;28;20019;-64
2022/05/14 09:50:07;;;;;;;;;;;21.10;99.90;;;;;;5094811;28;20014;-64
2022/05/14 09:52:34;;;;;;;;;;;21.20;99.90;;;;;;5094776;28;19920;-65
2022/05/14 09:55:01;;;;;;;;;;;20.90;99.90;;;;;;5094702;28;19920;-65
2022/05/14 09:57:33;;;;;;;;;;;20.70;99.90;;;;;;5094898;28;20289;-64
2022/05/14 10:00:05;;;;;;;;;;;20.30;99.90;;;;;;5094698;28;20385;-65
2022/05/14 10:02:37;;;;;;;;;;;20.20;99.90;;;;;;5094699;28;19920;-65
2022/05/14 10:05:15;;;;;;;;;;;20.60;99.90;;;;;;5094833;28;19924;-65
2022/05/14 10:07:47;;;;;;;;;;;21.00;99.90;;;;;;5094573;28;19927;-65
2022/05/14 10:10:29;;;;;;;;;;;20.80;99.90;;;;;;5076599;28;19928;-64
2022/05/14 10:13:00;;;;;;;;;;;21.20;99.90;;;;;;5094417;28;19970;-65
2022/05/14 10:15:32;;;;;;;;;;;20.80;99.90;;;;;;5094169;28;20007;-65
2022/05/14 10:18:03;;;;;;;;;;;20.90;99.90;;;;;;5094614;28;20370;-65
2022/05/14 10:20:41;;;;;;;;;;;21.00;99.90;;;;;;5094392;28;19955;-66
2022/05/14 10:26:47;;;;;;;;;;;21.40;99.90;;;;;;5094113;28;19920;-66
2022/05/14 10:29:18;;;;;;;;;;;21.70;99.90;;;;;;5094253;28;19927;-66
2022/05/14 10:31:50;;;;;;;;;;;21.60;99.90;;;;;;5094063;28;19985;-65
2022/05/14 10:34:21;;;;;;;;;;;21.50;99.90;;;;;;5094074;28;19920;-65
2022/05/14 10:36:48;;;;;;;;;;;21.60;99.90;;;;;;5093950;28;19955;-65
2022/05/14 10:39:23;;;;;;;;;;;21.80;99.90;;;;;;5093814;28;19924;-65
2022/05/14 10:41:52;;;;;;;;;;;22.00;99.90;;;;;;5094021;28;19966;-65
2022/05/14 10:44:30;;;;;;;;;;;22.10;99.90;;;;;;5093947;28;19920;-65
2022/05/14 10:46:59;;;;;;;;;;;22.10;99.90;;;;;;5093729;28;19965;-65
2022/05/14 10:49:50;;;;;;;;;;;22.40;99.90;;;;;;5093698;28;19924;-65
2022/05/14 10:52:16;;;;;;;;;;;22.60;99.90;;;;;;4992203;28;20327;-65
2022/05/14 10:54:43;;;;;;;;;;;22.70;99.90;;;;;;4991989;28;20312;-66
2022/05/14 10:57:14;;;;;;;;;;;22.50;99.90;;;;;;4991857;28;20279;-66
2022/05/14 10:59:59;;;;;;;;;;;22.10;99.90;;;;;;4991821;28;19926;-65
2022/05/14 11:02:28;;;;;;;;;;;21.80;99.90;;;;;;4992051;28;19933;-65
2022/05/14 11:04:53;;;;;;;;;;;21.50;99.90;;;;;;4992029;28;19988;-66
2022/05/14 11:07:47;;;;;;;;;;;21.10;99.90;;;;;;4991900;28;19969;-65
2022/05/14 11:10:12;;;;;;;;;;;20.90;99.90;;;;;;4989633;28;20041;-65
2022/05/14 11:12:38;;;;;;;;;;;20.70;99.90;;;;;;4991638;28;20017;-65
2022/05/14 11:15:16;;;;;;;;;;;20.60;99.90;;;;;;4991530;28;19933;-65
2022/05/14 11:17:42;;;;;;;;;;;20.50;99.90;;;;;;4991587;28;20368;-64
2022/05/14 11:20:11;;;;;;;;;;;20.40;99.90;;;;;;4991472;28;19929;-64
2022/05/14 11:22:41;;;;;;;;;;;20.30;99.90;;;;;;4991437;28;20236;-65
2022/05/14 11:25:09;;;;;;;;;;;20.30;99.90;;;;;;4991223;28;19922;-66
2022/05/14 11:27:37;;;;;;;;;;;20.80;99.90;;;;;;4991361;28;19964;-67
2022/05/14 11:30:05;;;;;;;;;;;21.30;99.90;;;;;;5083814;28;19965;-65
2022/05/14 11:32:48;;;;;;;;;;;21.70;99.90;;;;;;5093017;28;19927;-64
2022/05/14 11:35:14;;;;;;;;;;;21.80;99.80;;;;;;5093166;28;19924;-65
2022/05/14 11:37:43;;;;;;;;;;;22.10;99.90;;;;;;5093006;28;20301;-66
2022/05/14 11:40:20;;;;;;;;;;;22.50;99.90;;;;;;5093275;28;20292;-65
2022/05/14 11:42:47;;;;;;;;;;;22.70;99.90;;;;;;5092973;28;19920;-65
2022/05/14 11:45:13;;;;;;;;;;;22.40;99.90;;;;;;5074626;28;19920;-65
2022/05/14 11:47:41;;;;;;;;;;;22.30;99.90;;;;;;5092822;28;19996;-64
2022/05/14 11:50:07;;;;;;;;;;;21.80;99.90;;;;;;5092702;28;19966;-65
2022/05/14 11:52:51;;;;;;;;;;;21.40;99.90;;;;;;5092875;28;20286;-64
2022/05/14 11:55:20;;;;;;;;;;;21.40;99.90;;;;;;5092913;28;19993;-66
2022/05/14 11:57:49;;;;;;;;;;;21.70;99.90;;;;;;5074401;28;19920;-64
2022/05/14 12:00:19;;;;;;;;;;;21.80;99.90;;;;;;5092511;28;20378;-61
2022/05/14 12:02:47;;;;;;;;;;;21.60;99.90;;;;;;5092667;28;19950;-64
2022/05/14 12:05:17;;;;;;;;;;;21.40;99.90;;;;;;5092825;28;19921;-64
2022/05/14 12:08:01;;;;;;;;;;;21.40;99.90;;;;;;5092738;28;19920;-64
2022/05/14 12:10:32;;;;;;;;;;;21.70;99.90;;;;;;5092285;28;19927;-65
2022/05/14 12:13:04;;;;;;;;;;;21.80;99.90;;;;;;5092534;28;19927;-67
2022/05/14 12:15:31;;;;;;;;;;;22.20;99.90;;;;;;5092169;28;19926;-66
2022/05/14 12:17:57;;;;;;;;;;;22.70;99.90;;;;;;5057721;28;20278;-66
2022/05/14 12:20:28;;;;;;;;;;;23.00;99.90;;;;;;5092130;28;19921;-67
2022/05/14 12:22:56;;;;;;;;;;;23.30;98.60;;;;;;5092205;28;20340;-67
2022/05/14 12:25:32;;;;;;;;;;;23.50;99.00;;;;;;5092428;28;19924;-66
2022/05/14 12:27:58;;;;;;;;;;;23.80;99.70;;;;;;5092104;28;19981;-66
2022/05/14 12:33:12;;;;;;;;;;;22.90;99.90;;;;;;5092036;28;20267;-65
2022/05/14 12:35:40;;;;;;;;;;;22.80;99.90;;;;;;5092194;28;19920;-66
2022/05/14 12:38:08;;;;;;;;;;;22.60;99.80;;;;;;5095122;28;19985;-67
2022/05/14 12:40:35;;;;;;;;;;;22.50;99.70;;;;;;5060007;28;19928;-67
2022/05/14 12:43:02;;;;;;;;;;;22.20;99.30;;;;;;5096193;28;19920;-66
2022/05/14 12:45:35;;;;;;;;;;;22.20;99.90;;;;;;5096111;28;20394;-66
2022/05/14 12:48:02;;;;;;;;;;;22.30;99.90;;;;;;5078198;28;19920;-66
2022/05/14 12:50:32;;;;;;;;;;;22.40;99.90;;;;;;5096197;28;19926;-64
2022/05/14 12:53:05;;;;;;;;;;;22.30;99.90;;;;;;5096086;28;19920;-66
2022/05/14 12:55:32;;;;;;;;;;;22.20;99.90;;;;;;5096053;28;20292;-66
2022/05/14 12:58:01;;;;;;;;;;;22.10;99.90;;;;;;5095724;28;19932;-66
2022/05/14 13:00:27;;;;;;;;;;;22.30;99.90;;;;;;5095791;28;19955;-66
2022/05/14 13:03:04;;;;;;;;;;;22.20;99.90;;;;;;5095825;28;20357;-66
2022/05/14 13:05:35;;;;;;;;;;;22.00;99.90;;;;;;5095838;28;19971;-67
2022/05/14 13:08:08;;;;;;;;;;;22.80;99.90;;;;;;5095737;28;19920;-67
2022/05/14 13:10:34;;;;;;;;;;;22.70;99.60;;;;;;5095461;28;19927;-67
2022/05/14 13:13:04;;;;;;;;;;;22.60;99.90;;;;;;5095993;28;19924;-67
2022/05/14 13:15:32;;;;;;;;;;;22.60;99.90;;;;;;5095671;28;20439;-67
2022/05/14 13:17:57;;;;;;;;;;;22.50;99.90;;;;;;5077216;28;20417;-67
2022/05/14 13:20:24;;;;;;;;;;;22.70;99.90;;;;;;5077430;28;20003;-67
2022/05/14 13:23:01;;;;;;;;;;;23.10;99.90;;;;;;5095461;28;19920;-66
2022/05/14 13:25:31;;;;;;;;;;;23.30;99.50;;;;;;5095291;28;19927;-66
2022/05/14 13:28:16;;;;;;;;;;;22.70;98.60;;;;;;5095371;28;19920;-67
2022/05/14 13:30:44;;;;;;;;;;;22.40;99.70;;;;;;5077058;28;19920;-66
2022/05/14 13:33:10;;;;;;;;;;;22.20;99.90;;;;;;5095182;28;19926;-66
2022/05/14 13:38:38;;;;;;;;;;;22.20;99.90;;;;;;5095169;28;19931;-66
2022/05/14 13:41:04;;;;;;;;;;;22.00;99.90;;;;;;5094817;28;19931;-66
2022/05/14 13:43:37;;;;;;;;;;;21.80;99.90;;;;;;5095061;28;19920;-68
2022/05/14 13:46:11;;;;;;;;;;;22.00;99.90;;;;;;5094984;28;19982;-67
2022/05/14 13:48:37;;;;;;;;;;;22.50;99.90;;;;;;5094627;28;19920;-64
2022/05/14 13:51:04;;;;;;;;;;;22.70;99.90;;;;;;5095089;28;19974;-67
2022/05/14 13:53:32;;;;;;;;;;;22.50;99.10;;;;;;5094940;28;19920;-66
2022/05/14 13:55:59;;;;;;;;;;;22.40;99.90;;;;;;5094713;28;19966;-66
2022/05/14 13:58:25;;;;;;;;;;;22.00;99.80;;;;;;5094649;28;19928;-66
2022/05/14 14:00:53;;;;;;;;;;;22.10;99.90;;;;;;5094604;28;20014;-65
2022/05/14 14:03:21;;;;;;;;;;;22.50;99.90;;;;;;5094726;28;20348;-65
2022/05/14 14:05:47;;;;;;;;;;;22.70;99.90;;;;;;5094681;28;19920;-65
2022/05/14 14:08:14;;;;;;;;;;;23.00;99.90;;;;;;5094623;28;19927;-65
2022/05/14 14:10:40;;;;;;;;;;;23.00;99.90;;;;;;5094556;28;19928;-65
2022/05/14 14:13:07;;;;;;;;;;;23.10;99.90;;;;;;5094447;28;19921;-66
2022/05/14 14:15:35;;;;;;;;;;;22.80;99.30;;;;;;5094485;28;19927;-65
2022/05/14 14:18:01;;;;;;;;;;;22.50;99.90;;;;;;5094218;28;20022;-66
2022/05/14 14:20:28;;;;;;;;;;;22.20;99.90;;;;;;5094507;28;20255;-65
2022/05/14 14:22:54;;;;;;;;;;;21.90;99.90;;;;;;5094401;28;20385;-60
2022/05/14 14:25:19;;;;;;;;;;;21.70;99.90;;;;;;5094320;28;19978;-60
2022/05/14 14:27:45;;;;;;;;;;;21.60;99.90;;;;;;5094024;28;19970;-60
2022/05/14 14:30:12;;;;;;;;;;;21.40;99.90;;;;;;5094362;28;19927;-60
2022/05/14 14:32:37;;;;;;;;;;;21.30;99.90;;;;;;5094083;28;19920;-60
2022/05/14 14:35:04;;;;;;;;;;;21.00;99.90;;;;;;5094225;28;19973;-60
2022/05/14 14:37:29;;;;;;;;;;;21.00;99.90;;;;;;5094019;28;20012;-60
2022/05/14 14:39:55;;;;;;;;;;;20.90;99.90;;;;;;5093761;28;19994;-60
2022/05/14 14:42:21;;;;;;;;;;;20.90;99.90;;;;;;5093891;28;19927;-60
2022/05/14 14:44:47;;;;;;;;;;;20.80;99.90;;;;;;5093905;28;19926;-60